Portada
METAR-TAF:

METAR-TAF

Aeropuertos :

Aeropuerto de Rabat-Salé

Rabat, Marruecos

latitud: 34-03N, longitud: 006-46W, altitud: 84 m

Observación

El informe se hizo hace 31 minutos, a las 08:30 UTC
Viento 6 kt del norte, variando entre norte-noroeste y este-sureste
Temperatura 19°C
Humedad 73%
Presión 1019 hPa
Visibilidad: 7000 m
Nubes dispersas a una altura de 1300 ft
Cielo nuboso a una altura de 2000 ft

METAR: GMME 130830Z 01006KT 340V120 7000 SCT013 BKN020 19/14 Q1019 NOSIG

Hora: 09:01 (09:01 UTC)

Pronóstico

El informe se hizo hace 4 horas y 1 minutos, a las 05:00 UTC
Pronóstico válido del 13 a las 06 UTC al 14 a las 12 UTC
Viento 16 kt del norte-noroeste con ráfagas de 26 kt
Visibilidad: 8000 m
Cielo nuboso a una altura de 1600 ft
Temporalmente
del 14 a las 00 UTC al 14 a las 06 UTC
Viento 10 kt del sureste

TAF: GMME 130500Z 1306/1412 34016G26KT 8000 BKN016 TEMPO 1400/1406 14010KT

Observaciones y pronósticos meteorológicos de más de 4000 aeropuertos (mensajes METAR y TAF).

Los puntos amarillos y rojos representan las estaciones disponibles.

Ponga el ratón en el punto deseado para ver el nombre de la estación.

Haga clic para ver las observaciones y los pronósticos meteorológicos.

Para cambiar el mapa : haga clic en los botones verdes con una cruz de color negro para hacer un zoom, en el botón verde con un guión para alejar o en las flechas verdes para mapas adyacentes.


METAR-TAF: